This is the latest recevied weather packets stored in our database for station/object GW1480. If no packets are shown the sender has not sent any weather packets the latest 10 day(s).
| Time | Temp. | Humidity | Pressure | Rain* | Wind** | Luminosity | Snow |
|---|---|---|---|---|---|---|---|
| 1778056766 | 15° C | 97% | 1009.4 hPa | 7.11 mm | - | - | - |
| 1778056417 | 15° C | 97% | 1009.4 hPa | 6.6 mm | - | - | - |
| 1778052789 | 15° C | 97% | 1010.1 hPa | 2.03 mm | - | - | - |
| 1778052103 | 14.44° C | 97% | 1010.1 hPa | 2.03 mm | - | - | - |
| 1778050278 | 14.44° C | 96% | 1010.1 hPa | 0.25 mm | - | - | - |
| 1778048110 | 14.44° C | 96% | 1010.4 hPa | 0.25 mm | - | - | - |
| 1778045952 | 14.44° C | 95% | 1010.8 hPa | 0 mm | - | - | - |
| 1778040229 | 15.56° C | 92% | 1010.8 hPa | 0 mm | - | - | - |
| 1778038035 | 16.11° C | 88% | 1011.1 hPa | 0 mm | - | - | - |
| 1778037350 | 16.11° C | 87% | 1011.1 hPa | 0 mm | - | - | - |
| 1778036267 | 16.11° C | 87% | 1011.1 hPa | 0 mm | - | - | - |
| 1778035889 | 16.11° C | 87% | 1011.1 hPa | 0 mm | - | - | - |
| 1778032311 | 16.67° C | 89% | 1010.8 hPa | 0 mm | - | - | - |
| 1778024727 | 20° C | 74% | 1011.8 hPa | 0 mm | - | - | - |
| 1778019674 | 24.44° C | 44% | 1011.8 hPa | 0 mm | - | - | - |
| 1778018261 | 25.56° C | 43% | 1011.8 hPa | 0 mm | - | - | - |
| 1778017909 | 25.56° C | 44% | 1011.8 hPa | 0 mm | - | - | - |
| 1778017181 | 25.56° C | 42% | 1012.1 hPa | 0 mm | - | - | - |
| 1778016462 | 25° C | 43% | 1011.8 hPa | 0 mm | - | - | - |
| 1778011780 | 24.44° C | 46% | 1012.8 hPa | 0 mm | - | - | - |
| 1778008172 | 25° C | 46% | 1013.5 hPa | 0 mm | - | - | - |
| 1778007816 | 25° C | 46% | 1013.5 hPa | 0 mm | - | - | - |
| 1778003485 | 24.44° C | 47% | 1014.2 hPa | 0 mm | - | - | - |
| 1778003125 | 24.44° C | 46% | 1014.5 hPa | 0 mm | - | - | - |
| 1778000979 | 24.44° C | 47% | 1014.5 hPa | 0 mm | - | - | - |
* Rain since midnight (hover to see other rain measurements)
** Current wind speed in m/s (hover to see current wind gust speed)